createdAt,value
2019-05-17T00:00:04.079Z,83.99
2019-05-17T00:02:37.767Z,84.23
2019-05-17T00:05:11.379Z,84.73
2019-05-17T00:07:47.259Z,84.09
2019-05-17T00:10:19.925Z,83.94
2019-05-17T00:12:53.339Z,83.73
2019-05-17T00:15:27.349Z,83.44
2019-05-17T00:18:00.823Z,83.69
2019-05-17T00:20:34.214Z,83.71
2019-05-17T00:23:07.708Z,83.19
2019-05-17T00:25:41.098Z,83.00
2019-05-17T00:28:16.448Z,82.98
2019-05-17T00:30:49.637Z,83.83
2019-05-17T00:33:23.038Z,84.01
2019-05-17T00:35:56.447Z,84.22
2019-05-17T00:38:29.945Z,84.41
2019-05-17T00:41:03.353Z,84.30
2019-05-17T00:43:36.996Z,84.35
2019-05-17T00:46:10.520Z,83.93
2019-05-17T00:48:44.006Z,84.17
2019-05-17T00:51:17.386Z,84.25
2019-05-17T00:53:50.800Z,83.75
2019-05-17T00:56:26.481Z,83.79
2019-05-17T00:58:59.423Z,83.25
2019-05-17T01:01:32.821Z,83.58
2019-05-17T01:04:06.895Z,83.91
2019-05-17T01:06:40.484Z,84.13
2019-05-17T01:09:13.900Z,84.31
2019-05-17T01:11:47.556Z,84.01
2019-05-17T01:14:21.064Z,84.11
2019-05-17T01:16:56.366Z,83.62
2019-05-17T01:19:29.607Z,82.93
2019-05-17T01:22:03.127Z,83.07
2019-05-17T01:24:36.954Z,83.49
2019-05-17T01:27:10.308Z,83.31
2019-05-17T01:29:43.711Z,83.52
2019-05-17T01:32:17.362Z,83.64
2019-05-17T01:34:51.001Z,84.18
2019-05-17T01:37:24.460Z,83.78
2019-05-17T01:39:57.918Z,83.52
2019-05-17T01:42:31.292Z,83.68
2019-05-17T01:45:07.277Z,83.76
2019-05-17T01:47:40.794Z,83.31
2019-05-17T01:50:17.245Z,82.69
2019-05-17T01:52:49.947Z,82.72
2019-05-17T01:55:23.350Z,82.84
2019-05-17T01:57:56.739Z,83.23
2019-05-17T02:00:30.166Z,82.92
2019-05-17T02:03:03.543Z,82.83
2019-05-17T02:05:37.543Z,82.74
2019-05-17T02:08:11.038Z,83.03
2019-05-17T02:10:46.515Z,82.64
2019-05-17T02:13:19.592Z,82.83
2019-05-17T02:15:53.064Z,83.35
2019-05-17T02:18:26.718Z,83.33
2019-05-17T02:21:00.136Z,82.71
2019-05-17T02:23:33.530Z,82.97
2019-05-17T02:26:07.077Z,83.06
2019-05-17T02:28:41.476Z,83.26
2019-05-17T02:31:15.230Z,83.36
2019-05-17T02:33:48.779Z,83.11
2019-05-17T02:36:22.829Z,82.98
2019-05-17T02:38:56.374Z,83.17
2019-05-17T02:41:33.053Z,82.84
2019-05-17T02:44:05.175Z,82.34
2019-05-17T02:46:38.581Z,82.60
2019-05-17T02:49:13.670Z,83.15
2019-05-17T02:51:47.112Z,83.14
2019-05-17T02:54:23.237Z,83.05
2019-05-17T02:56:55.640Z,82.91
2019-05-17T02:59:29.033Z,83.06
2019-05-17T03:02:03.545Z,83.07
2019-05-17T03:04:37.187Z,83.67
2019-05-17T03:07:13.573Z,84.05
2019-05-17T03:09:45.737Z,83.87
2019-05-17T03:12:19.155Z,83.65
2019-05-17T03:14:52.954Z,83.75
2019-05-17T03:17:26.436Z,83.36
2019-05-17T03:20:03.570Z,83.46
2019-05-17T03:22:35.020Z,83.74
2019-05-17T03:25:08.634Z,83.90
2019-05-17T03:27:42.901Z,84.04
2019-05-17T03:30:18.921Z,83.96
2019-05-17T03:32:56.494Z,83.97
2019-05-17T03:35:29.066Z,83.78
2019-05-17T03:38:03.725Z,84.57
2019-05-17T03:41:03.595Z,84.08
2019-05-17T03:43:13.861Z,84.23
2019-05-17T03:45:47.532Z,83.53
2019-05-17T03:48:22.180Z,83.04
2019-05-17T03:50:55.828Z,83.23
2019-05-17T03:53:29.373Z,83.24
2019-05-17T03:56:03.172Z,83.46
2019-05-17T03:58:36.753Z,83.28
2019-05-17T04:01:10.132Z,83.31
2019-05-17T04:03:43.675Z,83.40
2019-05-17T04:06:16.991Z,83.72
2019-05-17T04:08:52.753Z,83.70
2019-05-17T04:11:31.480Z,83.73
2019-05-17T04:14:02.931Z,83.64
2019-05-17T04:16:35.926Z,83.52
2019-05-17T04:19:09.400Z,82.98
2019-05-17T04:21:43.024Z,82.81
2019-05-17T04:24:16.541Z,82.88
2019-05-17T04:26:52.367Z,83.15
2019-05-17T04:29:25.078Z,83.15
2019-05-17T04:31:58.773Z,82.92
2019-05-17T04:34:33.631Z,83.11
2019-05-17T04:37:07.284Z,82.65
2019-05-17T04:39:43.200Z,81.96
2019-05-17T04:42:15.827Z,82.07
2019-05-17T04:44:52.450Z,82.37
2019-05-17T04:47:24.421Z,82.17
2019-05-17T04:49:57.830Z,82.59
2019-05-17T04:52:33.676Z,83.19
2019-05-17T04:55:06.463Z,83.96
2019-05-17T04:57:43.289Z,84.13
2019-05-17T05:00:16.046Z,84.87
2019-05-17T05:02:52.521Z,84.35
2019-05-17T05:05:24.642Z,83.55
2019-05-17T05:07:58.031Z,83.06
2019-05-17T05:10:33.321Z,82.71
2019-05-17T05:13:06.639Z,82.32
2019-05-17T05:15:44.312Z,82.76
2019-05-17T05:18:18.123Z,81.64
2019-05-17T05:20:52.732Z,81.20
2019-05-17T05:23:26.285Z,81.39
2019-05-17T05:25:59.697Z,79.34
2019-05-17T05:28:33.093Z,78.79
2019-05-17T05:31:06.523Z,78.52
2019-05-17T05:33:41.953Z,79.14
2019-05-17T05:36:15.060Z,79.10
2019-05-17T05:38:48.457Z,79.48
2019-05-17T05:41:22.609Z,79.92
2019-05-17T05:43:56.034Z,80.24
2019-05-17T05:46:31.654Z,80.49
2019-05-17T05:49:04.740Z,79.50
2019-05-17T05:51:38.167Z,79.24
2019-05-17T05:54:12.280Z,80.19
2019-05-17T05:56:46.046Z,79.83
2019-05-17T05:59:19.543Z,79.84
2019-05-17T06:01:52.927Z,80.63
2019-05-17T06:04:26.510Z,79.32
2019-05-17T06:06:59.945Z,79.37
2019-05-17T06:09:33.340Z,78.58
2019-05-17T06:12:18.982Z,78.96
2019-05-17T06:14:42.012Z,78.28
2019-05-17T06:17:15.431Z,77.90
2019-05-17T06:19:48.891Z,77.31
2019-05-17T06:22:22.489Z,77.63
2019-05-17T06:24:55.996Z,77.20
2019-05-17T06:27:29.393Z,74.56
2019-05-17T06:30:02.954Z,74.96
2019-05-17T06:32:36.373Z,74.88
2019-05-17T06:35:12.356Z,74.74
2019-05-17T06:37:45.074Z,72.25
2019-05-17T06:40:18.562Z,71.45
2019-05-17T06:42:52.513Z,69.96
2019-05-17T06:45:26.122Z,67.51
2019-05-17T06:47:59.533Z,69.57
2019-05-17T06:50:32.966Z,68.60
2019-05-17T06:53:06.525Z,68.92
2019-05-17T06:55:42.140Z,68.97
2019-05-17T06:58:15.109Z,68.04
2019-05-17T07:00:49.764Z,67.66
2019-05-17T07:03:23.237Z,65.81
2019-05-17T07:05:59.631Z,65.97
2019-05-17T07:08:33.227Z,64.13
2019-05-17T07:11:06.629Z,61.33
2019-05-17T07:13:40.083Z,62.61
2019-05-17T07:16:13.479Z,59.01
2019-05-17T07:18:49.273Z,58.55
2019-05-17T07:21:22.032Z,57.09
2019-05-17T07:23:55.458Z,59.91
2019-05-17T07:26:30.236Z,61.45
2019-05-17T07:29:03.767Z,56.59
2019-05-17T07:31:37.174Z,55.75
2019-05-17T07:34:11.321Z,58.11
2019-05-17T07:36:44.756Z,56.45
2019-05-17T07:39:20.321Z,54.44
2019-05-17T07:41:53.319Z,53.39
2019-05-17T07:44:26.821Z,51.90
2019-05-17T07:47:01.029Z,54.90
2019-05-17T07:49:34.457Z,54.31
2019-05-17T07:52:10.196Z,57.36
2019-05-17T07:54:43.014Z,61.36
2019-05-17T07:57:16.449Z,59.32
2019-05-17T07:59:50.807Z,57.83
2019-05-17T08:02:24.276Z,59.50
2019-05-17T08:05:00.237Z,57.21
2019-05-17T08:07:32.923Z,56.60
2019-05-17T08:10:07.543Z,56.37
2019-05-17T08:12:41.226Z,57.09
2019-05-17T08:15:14.784Z,55.15
2019-05-17T08:17:50.178Z,55.15
2019-05-17T08:20:23.460Z,56.16
2019-05-17T08:22:56.869Z,52.60
2019-05-17T08:25:30.516Z,51.05
2019-05-17T08:28:03.900Z,50.80
2019-05-17T08:30:37.313Z,50.00
2019-05-17T08:33:11.263Z,50.15
2019-05-17T08:35:44.703Z,50.79
2019-05-17T08:38:19.744Z,50.90
2019-05-17T08:40:53.379Z,52.07
2019-05-17T08:43:38.310Z,51.63
2019-05-17T08:46:02.897Z,50.77
2019-05-17T08:48:36.442Z,49.93
2019-05-17T08:51:10.743Z,49.55
2019-05-17T08:53:44.393Z,48.70
2019-05-17T08:56:20.372Z,47.35
2019-05-17T08:58:52.931Z,46.63
2019-05-17T09:01:26.323Z,46.24
2019-05-17T09:04:00.006Z,46.79
2019-05-17T09:06:33.422Z,49.22
2019-05-17T09:09:09.819Z,46.83
2019-05-17T09:11:42.690Z,45.31
2019-05-17T09:14:16.099Z,47.11
2019-05-17T09:16:51.111Z,45.52
2019-05-17T09:19:24.491Z,44.89
2019-05-17T09:21:59.804Z,46.50
2019-05-17T09:24:33.244Z,45.73
2019-05-17T09:27:06.714Z,47.49
2019-05-17T09:29:40.449Z,46.56
2019-05-17T09:32:13.908Z,48.14
2019-05-17T09:34:49.658Z,47.02
2019-05-17T09:37:22.713Z,47.02
2019-05-17T09:39:56.127Z,48.08
2019-05-17T09:42:30.120Z,47.67
2019-05-17T09:45:04.307Z,48.44
2019-05-17T09:47:39.819Z,49.36
2019-05-17T09:50:14.845Z,50.12
2019-05-17T09:52:49.482Z,49.85
2019-05-17T09:55:23.144Z,49.64
2019-05-17T09:57:56.661Z,49.89
2019-05-17T10:00:31.296Z,50.27
2019-05-17T10:03:04.781Z,49.71
2019-05-17T10:05:40.565Z,49.73
2019-05-17T10:08:13.280Z,50.34
2019-05-17T10:10:46.736Z,50.17
2019-05-17T10:13:20.311Z,49.88
2019-05-17T10:15:53.725Z,48.72
2019-05-17T10:18:29.439Z,49.54
2019-05-17T10:21:02.300Z,46.81
2019-05-17T10:23:35.679Z,47.82
2019-05-17T10:26:10.251Z,46.89
2019-05-17T10:28:43.888Z,47.15
2019-05-17T10:31:19.607Z,45.40
2019-05-17T10:33:52.431Z,46.79
2019-05-17T10:36:25.855Z,48.12
2019-05-17T10:38:59.398Z,48.16
2019-05-17T10:41:32.817Z,47.93
2019-05-17T10:44:06.207Z,46.67
2019-05-17T10:46:40.704Z,47.05
2019-05-17T10:49:14.246Z,46.07
2019-05-17T10:51:49.403Z,48.67
2019-05-17T10:54:23.031Z,47.91
2019-05-17T10:56:56.414Z,48.80
2019-05-17T10:59:29.785Z,48.26
2019-05-17T11:02:03.242Z,49.50
2019-05-17T11:04:36.633Z,48.66
2019-05-17T11:07:10.589Z,47.47
2019-05-17T11:09:44.188Z,48.00
2019-05-17T11:12:17.627Z,47.48
2019-05-17T11:15:09.426Z,48.49
2019-05-17T11:17:26.186Z,48.20
2019-05-17T11:19:59.640Z,47.84
2019-05-17T11:22:33.146Z,47.41
2019-05-17T11:25:07.779Z,47.35
2019-05-17T11:27:41.210Z,46.87
2019-05-17T11:30:14.758Z,48.06
2019-05-17T11:32:48.170Z,47.72
2019-05-17T11:35:24.593Z,47.62
2019-05-17T11:37:56.730Z,46.17
2019-05-17T11:40:30.681Z,46.82
2019-05-17T11:43:04.242Z,46.51
2019-05-17T11:45:37.638Z,46.22
2019-05-17T11:48:11.072Z,47.39
2019-05-17T11:50:44.452Z,47.00
2019-05-17T11:53:17.880Z,45.12
2019-05-17T11:55:51.352Z,45.46
2019-05-17T11:58:24.752Z,44.78
2019-05-17T12:00:58.174Z,46.46
2019-05-17T12:03:31.597Z,47.27
2019-05-17T12:06:05.177Z,48.20
2019-05-17T12:08:38.711Z,47.63
2019-05-17T12:11:12.179Z,46.91
2019-05-17T12:13:45.654Z,45.20
2019-05-17T12:16:19.051Z,46.06
2019-05-17T12:18:52.533Z,45.23
2019-05-17T12:21:25.924Z,45.75
2019-05-17T12:23:59.336Z,45.85
2019-05-17T12:26:32.819Z,44.58
2019-05-17T12:29:06.334Z,44.24
2019-05-17T12:31:39.886Z,44.05
2019-05-17T12:34:13.307Z,47.13
2019-05-17T12:36:46.722Z,45.17
2019-05-17T12:39:20.224Z,47.16
2019-05-17T12:41:53.808Z,43.50
2019-05-17T12:44:27.622Z,44.63
2019-05-17T12:47:01.045Z,45.71
2019-05-17T12:49:34.457Z,46.23
2019-05-17T12:52:07.845Z,48.12
2019-05-17T12:54:41.265Z,47.90
2019-05-17T12:57:14.693Z,47.40
2019-05-17T12:59:48.101Z,47.74
2019-05-17T13:02:21.513Z,45.82
2019-05-17T13:04:54.958Z,45.57
2019-05-17T13:07:28.384Z,44.67
2019-05-17T13:10:01.824Z,43.37
2019-05-17T13:12:35.217Z,44.25
2019-05-17T13:15:09.600Z,44.53
2019-05-17T13:17:43.070Z,45.03
2019-05-17T13:20:17.222Z,43.99
2019-05-17T13:22:50.719Z,42.68
2019-05-17T13:25:24.116Z,41.81
2019-05-17T13:27:57.527Z,42.50
2019-05-17T13:30:30.960Z,43.17
2019-05-17T13:33:04.566Z,43.26
2019-05-17T13:35:37.989Z,43.34
2019-05-17T13:38:11.390Z,42.39
2019-05-17T13:40:45.136Z,42.18
2019-05-17T13:43:18.559Z,42.51
2019-05-17T13:45:51.966Z,42.19
2019-05-17T13:48:25.352Z,42.47
2019-05-17T13:50:58.787Z,42.14
2019-05-17T13:53:32.178Z,41.59
2019-05-17T13:56:05.766Z,42.10
2019-05-17T13:58:39.202Z,39.53
2019-05-17T14:01:12.623Z,40.03
2019-05-17T14:03:46.022Z,41.29
2019-05-17T14:06:19.447Z,38.63
2019-05-17T14:08:52.866Z,38.18
2019-05-17T14:11:26.338Z,39.27
2019-05-17T14:13:59.793Z,40.00
2019-05-17T14:16:34.683Z,41.11
2019-05-17T14:19:08.863Z,41.11
2019-05-17T14:21:42.793Z,40.35
2019-05-17T14:24:16.637Z,39.31
2019-05-17T14:26:49.999Z,39.95
2019-05-17T14:29:23.463Z,39.80
2019-05-17T14:31:56.897Z,41.58
2019-05-17T14:34:30.282Z,42.84
2019-05-17T14:37:07.390Z,42.04
2019-05-17T14:39:38.835Z,44.18
2019-05-17T14:42:12.328Z,43.94
2019-05-17T14:44:45.875Z,44.38
2019-05-17T14:47:19.297Z,43.27
2019-05-17T14:49:52.690Z,44.22
2019-05-17T14:52:26.257Z,45.09
2019-05-17T14:54:59.879Z,44.05
2019-05-17T14:57:33.300Z,44.38
2019-05-17T15:00:07.348Z,44.55
2019-05-17T15:02:40.777Z,45.57
2019-05-17T15:05:15.007Z,45.54
2019-05-17T15:07:48.570Z,44.60
2019-05-17T15:10:21.957Z,45.27
2019-05-17T15:12:55.394Z,45.26
2019-05-17T15:15:28.785Z,45.73
2019-05-17T15:18:02.280Z,45.44
2019-05-17T15:20:35.677Z,44.91
2019-05-17T15:23:09.084Z,43.83
2019-05-17T15:25:42.490Z,42.89
2019-05-17T15:28:15.920Z,43.85
2019-05-17T15:30:49.297Z,40.26
2019-05-17T15:33:22.700Z,40.45
2019-05-17T15:35:56.102Z,40.21
2019-05-17T15:38:29.548Z,36.96
2019-05-17T15:41:02.934Z,34.43
2019-05-17T15:43:36.374Z,37.92
2019-05-17T15:46:09.750Z,34.05
2019-05-17T15:48:43.161Z,35.87
2019-05-17T15:51:16.592Z,35.29
2019-05-17T15:53:50.014Z,34.15
2019-05-17T15:56:23.445Z,33.10
2019-05-17T15:58:56.862Z,35.29
2019-05-17T16:01:30.284Z,36.05
2019-05-17T16:04:03.758Z,36.09
2019-05-17T16:06:37.243Z,37.61
2019-05-17T16:09:10.659Z,36.21
2019-05-17T16:11:44.082Z,36.89
2019-05-17T16:14:17.506Z,37.14
2019-05-17T16:16:50.933Z,34.91
2019-05-17T16:19:24.335Z,41.17
2019-05-17T16:21:57.726Z,36.77
2019-05-17T16:24:31.155Z,37.88
2019-05-17T16:27:04.778Z,40.02
2019-05-17T16:29:38.204Z,40.62
2019-05-17T16:32:11.587Z,42.00
2019-05-17T16:34:45.009Z,43.46
2019-05-17T16:37:18.405Z,42.78
2019-05-17T16:39:52.060Z,42.31
2019-05-17T16:42:25.593Z,44.64
2019-05-17T16:44:58.998Z,42.69
2019-05-17T16:47:32.416Z,42.01
2019-05-17T16:50:08.765Z,44.10
2019-05-17T16:52:42.154Z,44.10
2019-05-17T16:55:15.799Z,41.99
2019-05-17T16:57:49.303Z,43.10
2019-05-17T17:00:40.401Z,42.91
2019-05-17T17:03:13.848Z,43.07
2019-05-17T17:05:47.276Z,42.80
2019-05-17T17:08:20.647Z,43.33
2019-05-17T17:10:54.064Z,43.16
2019-05-17T17:13:33.087Z,43.79
2019-05-17T17:16:02.717Z,43.63
2019-05-17T17:18:36.550Z,43.68
2019-05-17T17:21:10.094Z,43.86
2019-05-17T17:23:43.577Z,45.51
2019-05-17T17:26:16.987Z,45.85
2019-05-17T17:28:50.535Z,47.27
2019-05-17T17:31:24.055Z,48.26
2019-05-17T17:33:57.453Z,49.05
2019-05-17T17:36:30.935Z,49.39
2019-05-17T17:39:05.938Z,50.48
2019-05-17T17:41:39.407Z,49.39
2019-05-17T17:44:12.837Z,49.63
2019-05-17T17:46:46.612Z,49.79
2019-05-17T17:49:20.041Z,50.17
2019-05-17T17:51:53.449Z,49.87
2019-05-17T17:54:26.846Z,49.53
2019-05-17T17:57:00.253Z,49.42
2019-05-17T17:59:33.737Z,49.43
2019-05-17T18:02:07.568Z,50.06
2019-05-17T18:04:40.990Z,50.42
2019-05-17T18:07:14.450Z,50.67
2019-05-17T18:09:47.857Z,51.29
2019-05-17T18:12:21.277Z,51.65
2019-05-17T18:14:54.696Z,51.36
2019-05-17T18:17:28.114Z,51.17
2019-05-17T18:20:01.498Z,51.26
2019-05-17T18:22:34.933Z,51.03
2019-05-17T18:25:08.508Z,51.20
2019-05-17T18:27:42.011Z,51.52
2019-05-17T18:30:15.809Z,51.67
2019-05-17T18:32:49.247Z,52.14
2019-05-17T18:35:22.643Z,52.10
2019-05-17T18:37:56.222Z,51.94
2019-05-17T18:40:29.631Z,52.35
2019-05-17T18:43:03.012Z,52.33
2019-05-17T18:45:36.423Z,52.71
2019-05-17T18:48:09.927Z,52.28
2019-05-17T18:50:43.335Z,53.01
2019-05-17T18:53:17.444Z,52.59
2019-05-17T18:55:50.839Z,52.85
2019-05-17T18:58:24.264Z,52.95
2019-05-17T19:00:57.717Z,52.92
2019-05-17T19:03:31.229Z,53.30
2019-05-17T19:06:05.407Z,53.36
2019-05-17T19:08:38.837Z,53.36
2019-05-17T19:11:12.328Z,53.50
2019-05-17T19:13:45.732Z,53.77
2019-05-17T19:16:19.146Z,53.85
2019-05-17T19:18:52.557Z,54.19
2019-05-17T19:21:25.968Z,54.64
2019-05-17T19:23:59.410Z,55.80
2019-05-17T19:26:32.826Z,56.39
2019-05-17T19:29:06.398Z,55.83
2019-05-17T19:31:39.795Z,56.07
2019-05-17T19:34:13.293Z,56.12
2019-05-17T19:36:46.715Z,55.71
2019-05-17T19:39:20.127Z,55.68
2019-05-17T19:41:53.595Z,55.18
2019-05-17T19:44:26.936Z,55.39
2019-05-17T19:47:00.372Z,55.97
2019-05-17T19:49:33.770Z,56.87
2019-05-17T19:52:07.274Z,57.31
2019-05-17T19:54:40.662Z,57.34
2019-05-17T19:57:14.092Z,56.42
2019-05-17T19:59:47.505Z,56.41
2019-05-17T20:02:20.987Z,57.40
2019-05-17T20:04:54.403Z,58.00
2019-05-17T20:07:36.344Z,58.79
2019-05-17T20:10:03.636Z,59.13
2019-05-17T20:12:37.031Z,58.58
2019-05-17T20:15:17.175Z,58.88
2019-05-17T20:17:45.953Z,59.26
2019-05-17T20:20:19.580Z,59.41
2019-05-17T20:22:53.030Z,59.30
2019-05-17T20:25:26.447Z,59.98
2019-05-17T20:27:59.885Z,59.75
2019-05-17T20:30:34.454Z,59.84
2019-05-17T20:33:07.948Z,60.35
2019-05-17T20:35:41.347Z,60.20
2019-05-17T20:38:14.780Z,60.50
2019-05-17T20:40:48.263Z,60.69
2019-05-17T20:43:21.675Z,61.03
2019-05-17T20:45:55.094Z,60.54
2019-05-17T20:48:28.547Z,60.85
2019-05-17T20:51:01.978Z,61.26
2019-05-17T20:53:35.377Z,60.24
2019-05-17T20:56:08.818Z,60.40
2019-05-17T20:58:42.232Z,60.02
2019-05-17T21:01:15.709Z,59.79
2019-05-17T21:03:49.133Z,59.70
2019-05-17T21:06:22.599Z,59.87
2019-05-17T21:08:56.028Z,60.11
2019-05-17T21:11:29.498Z,60.40
2019-05-17T21:14:03.016Z,61.06
2019-05-17T21:16:36.398Z,61.80
2019-05-17T21:19:09.849Z,61.60
2019-05-17T21:21:43.239Z,61.74
2019-05-17T21:24:16.675Z,61.46
2019-05-17T21:26:50.048Z,61.73
2019-05-17T21:29:23.509Z,61.33
2019-05-17T21:31:56.890Z,61.03
2019-05-17T21:34:30.310Z,60.98
2019-05-17T21:37:03.786Z,62.22
2019-05-17T21:39:37.216Z,62.47
2019-05-17T21:42:10.598Z,62.14
2019-05-17T21:44:44.149Z,61.38
2019-05-17T21:47:17.489Z,60.50
2019-05-17T21:49:50.964Z,61.01
2019-05-17T21:52:24.361Z,61.40
2019-05-17T21:54:57.770Z,62.32
2019-05-17T21:57:31.174Z,62.44
2019-05-17T22:00:10.185Z,63.11
2019-05-17T22:02:43.597Z,63.30
2019-05-17T22:05:17.023Z,64.07
2019-05-17T22:07:50.407Z,64.73
2019-05-17T22:10:23.847Z,64.53
2019-05-17T22:12:57.231Z,64.33
2019-05-17T22:15:30.683Z,63.65
2019-05-17T22:18:04.123Z,64.04
2019-05-17T22:20:37.531Z,64.39
2019-05-17T22:23:10.910Z,64.91
2019-05-17T22:25:44.333Z,65.36
2019-05-17T22:28:17.718Z,65.61
2019-05-17T22:30:51.129Z,66.17
2019-05-17T22:33:24.524Z,66.80
2019-05-17T22:35:57.939Z,65.85
2019-05-17T22:38:31.398Z,65.54
2019-05-17T22:41:04.833Z,65.64
2019-05-17T22:43:38.211Z,66.06
2019-05-17T22:46:11.651Z,66.45
2019-05-17T22:48:45.041Z,66.36
2019-05-17T22:51:18.464Z,67.02
2019-05-17T22:53:51.853Z,67.22
2019-05-17T22:56:25.266Z,67.82
2019-05-17T22:58:58.659Z,67.81
2019-05-17T23:01:32.151Z,68.30
2019-05-17T23:04:05.596Z,69.38
2019-05-17T23:06:39.024Z,69.47
2019-05-17T23:09:12.400Z,69.48
2019-05-17T23:11:45.819Z,69.70
2019-05-17T23:14:19.316Z,70.92
2019-05-17T23:16:52.718Z,70.67
2019-05-17T23:19:26.117Z,71.24
2019-05-17T23:21:59.544Z,73.84
2019-05-17T23:24:32.941Z,73.84
2019-05-17T23:27:06.376Z,74.62
2019-05-17T23:29:41.273Z,75.14
2019-05-17T23:32:14.873Z,75.53
2019-05-17T23:34:48.272Z,75.76
2019-05-17T23:37:21.678Z,76.00
2019-05-17T23:39:55.060Z,76.34
2019-05-17T23:42:28.489Z,76.64
2019-05-17T23:45:01.972Z,76.18
2019-05-17T23:47:35.459Z,75.56
2019-05-17T23:50:09.601Z,76.11
2019-05-17T23:52:43.183Z,76.69
2019-05-17T23:55:16.646Z,77.19
2019-05-17T23:57:50.074Z,76.77
